createdAt,value
2022-10-20T00:06:27.519Z,3.55
2022-10-20T00:16:29.631Z,3.85
2022-10-20T00:26:31.261Z,3.72
2022-10-20T00:36:32.619Z,3.63
2022-10-20T00:46:38.916Z,3.90
2022-10-20T00:56:42.096Z,3.58
2022-10-20T01:06:43.549Z,4.03
2022-10-20T01:16:54.155Z,3.40
2022-10-20T01:27:17.133Z,3.42
2022-10-20T01:37:34.349Z,4.40
2022-10-20T01:47:49.366Z,3.10
2022-10-20T01:58:12.010Z,3.55
2022-10-20T02:08:16.661Z,3.60
2022-10-20T02:18:20.702Z,25.25
2022-10-20T02:28:22.103Z,3.40
2022-10-20T02:38:23.520Z,3.63
2022-10-20T02:48:25.413Z,2.95
2022-10-20T02:58:26.887Z,2.95
2022-10-20T03:08:28.315Z,3.42
2022-10-20T03:18:29.835Z,3.08
2022-10-20T03:28:31.279Z,2.60
2022-10-20T03:38:32.660Z,2.92
2022-10-20T03:48:34.162Z,3.40
2022-10-20T03:58:35.625Z,2.67
2022-10-20T04:08:37.194Z,3.65
2022-10-20T04:18:38.840Z,2.85
2022-10-20T04:28:40.457Z,2.55
2022-10-20T04:38:41.915Z,3.20
2022-10-20T04:48:44.341Z,2.80
2022-10-20T04:58:53.422Z,3.17
2022-10-20T05:08:56.743Z,3.13
2022-10-20T05:18:58.316Z,3.55
2022-10-20T05:28:59.783Z,3.25
2022-10-20T05:39:01.208Z,3.15
2022-10-20T05:49:02.902Z,3.70
2022-10-20T05:59:04.286Z,2.90
2022-10-20T06:09:07.196Z,2.75
2022-10-20T06:19:08.660Z,4.82
2022-10-20T06:29:12.010Z,3.78
2022-10-20T06:39:15.239Z,3.13
2022-10-20T06:49:16.653Z,3.92
2022-10-20T06:59:18.032Z,4.20
2022-10-20T07:09:20.551Z,3.72
2022-10-20T07:19:22.506Z,4.78
2022-10-20T07:29:23.973Z,3.85
2022-10-20T07:39:25.739Z,4.57
2022-10-20T07:49:44.389Z,5.05
2022-10-20T07:59:46.396Z,4.57
2022-10-20T08:09:47.804Z,4.88
2022-10-20T08:19:51.306Z,4.15
2022-10-20T08:30:06.248Z,4.25
2022-10-20T08:40:23.120Z,4.25
2022-10-20T08:50:27.469Z,4.90
2022-10-20T09:00:30.986Z,5.03
2022-10-20T09:10:37.074Z,4.35
2022-10-20T09:20:55.440Z,5.03
2022-10-20T09:30:56.997Z,4.60
2022-10-20T09:41:28.367Z,5.28
2022-10-20T09:51:29.756Z,5.10
2022-10-20T10:01:31.262Z,5.38
2022-10-20T10:11:34.347Z,4.85
2022-10-20T10:21:51.859Z,4.47
2022-10-20T10:32:14.960Z,5.80
2022-10-20T10:42:39.434Z,5.47
2022-10-20T10:52:50.051Z,6.93
2022-10-20T11:02:54.335Z,5.78
2022-10-20T11:13:09.621Z,6.85
2022-10-20T11:23:16.932Z,7.60
2022-10-20T11:33:22.963Z,6.70
2022-10-20T11:43:29.189Z,7.18
2022-10-20T11:53:39.441Z,6.38
2022-10-20T12:03:54.938Z,8.20
2022-10-20T12:14:14.468Z,7.97
2022-10-20T12:24:38.367Z,7.28
2022-10-20T12:34:40.462Z,8.95
2022-10-20T12:44:42.983Z,8.98
2022-10-20T12:54:48.506Z,8.82
2022-10-20T13:05:03.812Z,10.68
2022-10-20T13:15:05.768Z,9.75
2022-10-20T13:25:14.245Z,9.80
2022-10-20T13:35:32.688Z,11.20
2022-10-20T13:45:49.152Z,9.63
2022-10-20T13:55:58.410Z,8.93
2022-10-20T14:06:00.022Z,9.88
2022-10-20T14:16:02.799Z,9.10
2022-10-20T14:26:06.436Z,8.85
2022-10-20T14:36:17.707Z,8.95
2022-10-20T14:46:39.202Z,9.50
2022-10-20T14:56:44.694Z,9.50
2022-10-20T15:06:46.185Z,9.45
2022-10-20T15:16:48.115Z,9.48
2022-10-20T15:26:49.481Z,8.48
2022-10-20T15:36:51.185Z,9.05
2022-10-20T15:46:55.514Z,8.93
2022-10-20T15:56:57.107Z,9.18
2022-10-20T16:07:02.574Z,10.45
2022-10-20T16:17:04.502Z,11.63
2022-10-20T16:27:06.301Z,10.48
2022-10-20T16:37:07.997Z,10.10
2022-10-20T16:47:11.265Z,9.73
2022-10-20T16:57:13.206Z,9.82
2022-10-20T17:07:14.728Z,10.00
2022-10-20T17:17:16.120Z,10.43
2022-10-20T17:27:17.626Z,11.05
2022-10-20T17:37:19.064Z,10.93
2022-10-20T17:47:20.560Z,9.30
2022-10-20T17:57:21.935Z,10.30
2022-10-20T18:07:23.458Z,9.07
2022-10-20T18:17:24.867Z,9.38
2022-10-20T18:27:26.300Z,10.02
2022-10-20T18:37:27.686Z,8.80
2022-10-20T18:47:29.096Z,10.02
2022-10-20T18:57:32.918Z,10.60
2022-10-20T19:07:34.811Z,9.82
2022-10-20T19:17:36.659Z,9.57
2022-10-20T19:27:38.088Z,9.60
2022-10-20T19:37:39.485Z,10.05
2022-10-20T19:47:40.950Z,8.45
2022-10-20T19:57:42.357Z,8.57
2022-10-20T20:07:43.820Z,8.25
2022-10-20T20:17:45.308Z,9.10
2022-10-20T20:27:46.708Z,8.90
2022-10-20T20:37:48.106Z,9.70
2022-10-20T20:47:49.592Z,9.23
2022-10-20T20:57:50.993Z,10.48
2022-10-20T21:07:52.493Z,8.93
2022-10-20T21:17:53.907Z,7.90
2022-10-20T21:27:55.513Z,9.98
2022-10-20T21:37:57.285Z,11.60
2022-10-20T21:47:58.666Z,9.30
2022-10-20T21:58:00.041Z,9.98
2022-10-20T22:08:01.422Z,10.30
2022-10-20T22:18:02.795Z,10.80
2022-10-20T22:28:05.472Z,11.95
2022-10-20T22:38:06.969Z,9.63
2022-10-20T22:48:08.470Z,7.18
2022-10-20T22:58:09.982Z,10.55
2022-10-20T23:08:11.493Z,10.82
2022-10-20T23:18:12.966Z,9.32
2022-10-20T23:28:14.370Z,10.00
2022-10-20T23:38:15.774Z,9.80
2022-10-20T23:48:17.174Z,9.88
2022-10-20T23:58:21.877Z,8.35
